Time;durP1;ratioP1;P1;durP2;ratioP2;P2;SDS_P1;SDS_P2;PMS_P1;PMS_P2;Temp;Humidity;BMP_temperature;BMP_pressure;BME280_temperature;BME280_humidity;BME280_pressure;Samples;Min_cycle;Max_cycle;Signal;HPM_P1;HPM_P2
2022/12/26 00:01:47;;;;;;;10.25;5.18;;;12.60;99.90;;;;;;5033190;28;20076;-82
2022/12/26 00:04:14;;;;;;;7.82;5.13;;;12.50;99.90;;;;;;5032919;28;20362;-82
2022/12/26 00:06:40;;;;;;;7.72;5.20;;;12.60;99.90;;;;;;5032773;28;20041;-82
2022/12/26 00:09:06;;;;;;;7.45;5.32;;;12.60;99.90;;;;;;5015048;28;20456;-82
2022/12/26 00:11:32;;;;;;;8.38;4.78;;;12.60;99.90;;;;;;5032685;28;20113;-82
2022/12/26 00:14:12;;;;;;;3.85;3.42;;;12.70;99.90;;;;;;5032654;28;20068;-82
2022/12/26 00:16:40;;;;;;;4.93;3.80;;;12.80;99.90;;;;;;5032534;28;20569;-82
2022/12/26 00:19:06;;;;;;;4.82;3.05;;;12.70;99.90;;;;;;5032557;28;20046;-82
2022/12/26 00:21:32;;;;;;;9.63;5.32;;;12.70;99.90;;;;;;5032940;28;20041;-82
2022/12/26 00:23:59;;;;;;;4.95;3.75;;;12.70;99.90;;;;;;5032166;28;20087;-82
2022/12/26 00:26:26;;;;;;;9.88;4.38;;;12.70;99.90;;;;;;5031587;28;20041;-82
2022/12/26 00:28:54;;;;;;;8.20;4.95;;;12.80;99.90;;;;;;5032536;28;20150;-81
2022/12/26 00:31:32;;;;;;;7.20;4.60;;;12.90;99.90;;;;;;5032474;28;20026;-80
2022/12/26 00:33:58;;;;;;;7.45;4.93;;;12.80;99.90;;;;;;5032173;28;20028;-82
2022/12/26 00:36:30;;;;;;;9.68;5.38;;;12.80;99.90;;;;;;5032491;28;20056;-82
2022/12/26 00:38:57;;;;;;;9.35;5.15;;;12.70;99.90;;;;;;5032036;28;20049;-82
2022/12/26 00:41:23;;;;;;;7.88;5.65;;;12.80;99.90;;;;;;5032448;28;20384;-82
2022/12/26 00:43:49;;;;;;;7.80;5.60;;;12.80;99.90;;;;;;5032159;28;20116;-82
2022/12/26 00:46:16;;;;;;;6.60;5.32;;;12.80;99.90;;;;;;5032327;28;20048;-82
2022/12/26 00:48:42;;;;;;;8.48;4.05;;;12.70;99.90;;;;;;5032123;28;20021;-82
2022/12/26 00:51:08;;;;;;;5.70;3.65;;;12.70;99.90;;;;;;5032335;28;20045;-82
2022/12/26 00:53:34;;;;;;;9.38;5.03;;;12.70;99.90;;;;;;5031677;28;20072;-82
2022/12/26 00:56:00;;;;;;;5.45;4.43;;;12.70;99.90;;;;;;5032046;28;20021;-82
2022/12/26 00:58:25;;;;;;;9.23;5.22;;;12.70;99.90;;;;;;5032014;28;20057;-82
2022/12/26 01:00:51;;;;;;;9.90;4.65;;;12.70;99.90;;;;;;5014453;28;20037;-82
2022/12/26 01:03:18;;;;;;;6.78;5.25;;;12.60;99.90;;;;;;5031884;28;20029;-82
2022/12/26 01:05:45;;;;;;;5.32;4.57;;;12.70;99.90;;;;;;5032152;28;20026;-82
2022/12/26 01:08:11;;;;;;;8.10;4.47;;;12.60;99.90;;;;;;5031782;28;20031;-83
2022/12/26 01:10:40;;;;;;;7.50;5.18;;;12.70;99.90;;;;;;5032314;28;20068;-82
2022/12/26 01:13:06;;;;;;;8.68;5.35;;;12.70;99.90;;;;;;5031856;28;20432;-82
2022/12/26 01:15:31;;;;;;;6.93;4.60;;;12.60;99.90;;;;;;5032217;28;20026;-82
2022/12/26 01:17:59;;;;;;;7.40;4.97;;;12.70;99.90;;;;;;5031928;28;20075;-82
2022/12/26 01:20:25;;;;;;;8.68;5.80;;;12.70;99.90;;;;;;5031826;28;20026;-81
2022/12/26 01:22:50;;;;;;;7.85;5.43;;;12.70;99.90;;;;;;5031461;28;20037;-82
2022/12/26 01:25:16;;;;;;;8.93;5.60;;;12.70;99.90;;;;;;5014468;28;20121;-82
2022/12/26 01:27:42;;;;;;;7.65;5.20;;;12.70;99.90;;;;;;5031789;28;20026;-82
2022/12/26 01:30:08;;;;;;;8.10;5.18;;;12.90;99.90;;;;;;5032028;28;20057;-82
2022/12/26 01:32:34;;;;;;;4.50;3.50;;;12.90;99.90;;;;;;5031844;28;20029;-82
2022/12/26 01:34:59;;;;;;;9.70;4.88;;;13.00;99.90;;;;;;5031859;28;20034;-82
2022/12/26 01:37:25;;;;;;;8.38;4.78;;;13.00;99.90;;;;;;5031565;28;20026;-82
2022/12/26 01:39:51;;;;;;;9.55;5.35;;;13.00;99.90;;;;;;5035455;28;20030;-81
2022/12/26 01:42:20;;;;;;;7.20;4.60;;;13.00;99.90;;;;;;5017657;28;20037;-82
2022/12/26 01:45:00;;;;;;;7.28;4.90;;;13.10;99.90;;;;;;5035450;28;20021;-82
2022/12/26 01:48:12;;;;;;;5.55;4.43;;;13.00;99.90;;;;;;5035306;28;20053;-82
2022/12/26 01:50:47;;;;;;;8.85;5.07;;;13.10;99.90;;;;;;5026853;28;20048;-82
2022/12/26 01:53:22;;;;;;;7.13;4.60;;;13.10;99.90;;;;;;5035467;28;20489;-82
2022/12/26 01:55:56;;;;;;;8.93;5.00;;;13.10;99.90;;;;;;5035441;28;20026;-82
2022/12/26 01:58:38;;;;;;;6.28;3.65;;;13.10;99.90;;;;;;5035332;28;20052;-82
2022/12/26 02:01:07;;;;;;;6.00;3.70;;;13.20;99.90;;;;;;5035355;28;20072;-82
2022/12/26 02:06:19;;;;;;;9.55;4.93;;;13.10;99.90;;;;;;5035122;28;20045;-82
2022/12/26 02:08:45;;;;;;;6.97;4.78;;;13.00;99.90;;;;;;5034994;28;20037;-82
2022/12/26 02:11:14;;;;;;;6.70;4.28;;;12.90;99.90;;;;;;5035170;28;20053;-82
2022/12/26 02:13:40;;;;;;;9.18;4.85;;;12.90;99.90;;;;;;5035445;28;20029;-82
2022/12/26 02:16:08;;;;;;;6.90;3.20;;;12.90;99.90;;;;;;5035081;28;20076;-82
2022/12/26 02:18:34;;;;;;;4.85;3.05;;;13.00;99.90;;;;;;5034761;28;20058;-82
2022/12/26 02:21:17;;;;;;;5.30;4.03;;;13.00;99.90;;;;;;5016640;28;20548;-82
2022/12/26 02:24:01;;;;;;;4.68;3.28;;;13.00;99.90;;;;;;5034771;28;20156;-82
2022/12/26 02:26:57;;;;;;;9.18;5.15;;;13.00;99.90;;;;;;5034873;28;20547;-82
2022/12/26 02:29:31;;;;;;;6.05;3.83;;;12.90;99.90;;;;;;5034774;28;20045;-82
2022/12/26 02:32:03;;;;;;;5.95;3.63;;;13.10;99.90;;;;;;5034727;28;20112;-83
2022/12/26 02:34:28;;;;;;;10.10;5.45;;;13.00;99.90;;;;;;5034665;28;20026;-82
2022/12/26 02:37:18;;;;;;;8.07;4.85;;;13.00;99.90;;;;;;5034699;28;20024;-82
2022/12/26 02:39:55;;;;;;;8.90;4.47;;;13.00;99.90;;;;;;5034158;28;20520;-82
2022/12/26 02:42:35;;;;;;;7.53;3.45;;;12.90;99.90;;;;;;5034692;28;20505;-82
2022/12/26 02:48:26;;;;;;;8.50;3.38;;;13.00;99.90;;;;;;5034083;28;20031;-82
2022/12/26 03:14:47;;;;;;;10.30;5.10;;;12.80;99.90;;;;;;5034473;28;20045;-82
2022/12/26 03:17:38;;;;;;;8.90;4.90;;;12.80;99.90;;;;;;5033708;28;20021;-82
2022/12/26 03:20:34;;;;;;;9.93;5.25;;;12.70;99.90;;;;;;5033641;28;20029;-82
2022/12/26 03:23:13;;;;;;;7.38;4.47;;;12.70;99.90;;;;;;5017508;28;20045;-82
2022/12/26 03:28:26;;;;;;;8.25;3.72;;;12.70;99.90;;;;;;5033932;28;20052;-82
2022/12/26 03:30:54;;;;;;;5.35;3.50;;;12.70;99.90;;;;;;5033534;28;20040;-82
2022/12/26 03:36:57;;;;;;;7.03;4.60;;;12.80;99.90;;;;;;5033722;28;20041;-82
2022/12/26 04:44:11;;;;;;;6.95;4.45;;;12.50;99.90;;;;;;5032200;28;20033;-82
2022/12/26 04:46:47;;;;;;;8.38;4.45;;;12.40;99.90;;;;;;5032329;28;20049;-82
2022/12/26 04:52:13;;;;;;;7.18;4.00;;;12.50;99.90;;;;;;4990585;28;20042;-82
2022/12/26 04:54:40;;;;;;;5.03;2.67;;;12.40;99.90;;;;;;4990624;28;20399;-82
2022/12/26 04:57:06;;;;;;;6.13;3.67;;;12.50;99.90;;;;;;4990759;28;20077;-82
2022/12/26 04:59:32;;;;;;;5.53;3.28;;;12.50;99.90;;;;;;4990322;28;20395;-82
2022/12/26 05:10:24;;;;;;;6.80;3.75;;;12.50;99.90;;;;;;4990916;28;20157;-82
2022/12/26 05:12:51;;;;;;;6.07;3.95;;;12.50;99.90;;;;;;4990632;28;20581;-82
2022/12/26 05:15:17;;;;;;;7.95;3.85;;;12.50;99.90;;;;;;4994529;28;20062;-81
2022/12/26 05:29:06;;;;;;;2.88;2.33;;;12.50;99.90;;;;;;4993914;28;20033;-82
2022/12/26 05:31:32;;;;;;;5.60;3.35;;;12.60;99.90;;;;;;4994410;28;20039;-80
2022/12/26 05:34:09;;;;;;;8.18;4.05;;;12.50;99.90;;;;;;4994401;28;20522;-82
2022/12/26 05:36:42;;;;;;;5.88;3.30;;;12.50;99.90;;;;;;4994293;28;20070;-82
2022/12/26 05:39:08;;;;;;;4.60;2.95;;;12.40;99.90;;;;;;4994342;28;20027;-82
2022/12/26 05:41:35;;;;;;;6.50;3.30;;;12.40;99.90;;;;;;4994178;28;20503;-82
2022/12/26 05:44:01;;;;;;;7.03;3.72;;;12.50;99.90;;;;;;4993838;28;20038;-82
2022/12/26 05:46:27;;;;;;;6.85;4.22;;;12.40;99.90;;;;;;4993963;28;20158;-82
2022/12/26 05:48:52;;;;;;;6.40;4.22;;;12.40;99.90;;;;;;4994116;28;20022;-82
2022/12/26 05:51:18;;;;;;;6.35;4.03;;;12.30;99.90;;;;;;4993899;28;20022;-81
2022/12/26 05:53:44;;;;;;;12.20;2.92;;;12.30;99.90;;;;;;4993814;28;20093;-82
2022/12/26 05:56:15;;;;;;;7.38;4.18;;;12.40;99.90;;;;;;5012967;28;20090;-82
2022/12/26 05:58:41;;;;;;;6.15;4.22;;;12.30;99.90;;;;;;5035063;28;20075;-82
2022/12/26 06:01:13;;;;;;;5.70;3.67;;;12.30;99.90;;;;;;5035183;28;20041;-82
2022/12/26 06:03:42;;;;;;;6.22;3.97;;;12.20;99.90;;;;;;5035438;28;20044;-82
2022/12/26 06:06:08;;;;;;;4.78;3.47;;;12.30;99.90;;;;;;5035256;28;20113;-82
2022/12/26 06:08:34;;;;;;;9.65;4.50;;;12.40;99.90;;;;;;5035258;28;20025;-82
2022/12/26 06:11:03;;;;;;;5.97;4.32;;;12.30;99.90;;;;;;5034767;28;20021;-82
2022/12/26 06:13:29;;;;;;;5.75;3.33;;;12.20;99.90;;;;;;5035036;28;20053;-82
2022/12/26 06:15:55;;;;;;;6.50;3.85;;;12.40;99.90;;;;;;5034892;28;20057;-82
2022/12/26 06:18:21;;;;;;;5.70;2.97;;;12.40;99.90;;;;;;5034708;28;20063;-82
2022/12/26 06:20:46;;;;;;;5.63;3.67;;;12.60;99.90;;;;;;5034841;28;20030;-82
2022/12/26 06:23:13;;;;;;;4.43;2.78;;;12.60;99.90;;;;;;5034938;28;20053;-82
2022/12/26 06:25:39;;;;;;;5.00;3.13;;;12.60;99.90;;;;;;5034327;28;20494;-82
2022/12/26 06:28:05;;;;;;;4.57;3.25;;;12.70;99.90;;;;;;5034780;28;20397;-82
2022/12/26 06:30:30;;;;;;;7.10;3.83;;;12.60;99.90;;;;;;5034829;28;20026;-82
2022/12/26 06:32:56;;;;;;;7.00;4.10;;;12.60;99.90;;;;;;5034691;28;20025;-82
2022/12/26 06:35:22;;;;;;;5.97;3.88;;;12.50;99.90;;;;;;5034199;28;20109;-82
2022/12/26 06:37:47;;;;;;;6.22;4.05;;;12.50;99.90;;;;;;5034909;28;20445;-82
2022/12/26 06:40:13;;;;;;;4.22;3.70;;;12.40;99.90;;;;;;5034296;28;20026;-82
2022/12/26 06:42:39;;;;;;;7.68;3.75;;;12.40;99.90;;;;;;5034296;28;20187;-82
2022/12/26 06:45:05;;;;;;;4.68;2.72;;;12.40;99.90;;;;;;5034447;28;20022;-82
2022/12/26 06:47:30;;;;;;;6.63;3.58;;;12.60;99.90;;;;;;5034804;28;20094;-82
2022/12/26 06:49:56;;;;;;;5.55;3.60;;;12.60;99.90;;;;;;5034361;28;20078;-82
2022/12/26 06:52:21;;;;;;;6.32;4.00;;;12.60;99.90;;;;;;5016221;28;20557;-82
2022/12/26 06:54:47;;;;;;;5.90;3.78;;;12.50;99.90;;;;;;5033872;28;20017;-82
2022/12/26 06:57:13;;;;;;;4.95;3.55;;;12.60;99.90;;;;;;5034540;28;20036;-82
2022/12/26 06:59:38;;;;;;;4.80;2.85;;;12.60;99.90;;;;;;5034129;28;20022;-81
2022/12/26 07:02:04;;;;;;;4.38;3.30;;;12.60;99.90;;;;;;5034134;28;20128;-82
2022/12/26 07:04:29;;;;;;;8.50;2.22;;;12.60;99.90;;;;;;5034081;28;20488;-82
2022/12/26 07:06:55;;;;;;;3.90;2.50;;;12.80;99.90;;;;;;5034258;28;20033;-82
2022/12/26 07:09:21;;;;;;;3.40;2.40;;;12.80;99.90;;;;;;5016005;28;20025;-82
2022/12/26 07:11:49;;;;;;;7.05;3.20;;;12.80;99.90;;;;;;5033976;28;20045;-82
2022/12/26 07:14:15;;;;;;;5.47;3.47;;;12.80;99.90;;;;;;5034032;28;20389;-82
2022/12/26 07:16:43;;;;;;;5.93;3.83;;;12.70;99.90;;;;;;5034047;28;20105;-82
2022/12/26 07:19:10;;;;;;;5.00;3.10;;;12.90;99.90;;;;;;5033502;28;20125;-82
2022/12/26 07:21:37;;;;;;;6.38;3.33;;;12.80;99.90;;;;;;5033799;28;20407;-83
2022/12/26 07:24:03;;;;;;;7.00;3.63;;;12.80;99.90;;;;;;5033371;28;20493;-82
2022/12/26 07:26:28;;;;;;;5.03;3.72;;;12.80;99.90;;;;;;5033651;28;20060;-82
2022/12/26 07:28:57;;;;;;;6.63;3.28;;;12.80;99.90;;;;;;5034164;28;20104;-82
2022/12/26 07:31:24;;;;;;;3.85;2.33;;;12.80;99.90;;;;;;5033300;28;20370;-87
2022/12/26 07:33:53;;;;;;;6.30;3.65;;;12.90;99.90;;;;;;5032808;28;20025;-84
2022/12/26 07:36:19;;;;;;;6.32;3.80;;;13.00;99.90;;;;;;5032634;28;20026;-85
2022/12/26 07:38:46;;;;;;;6.40;3.47;;;13.50;99.90;;;;;;5031878;28;20086;-83
2022/12/26 07:43:56;;;;;;;5.25;3.15;;;13.50;99.90;;;;;;5033565;28;20052;-83
2022/12/26 07:46:22;;;;;;;5.15;3.13;;;13.30;99.90;;;;;;5032868;28;20486;-83
2022/12/26 07:48:47;;;;;;;4.38;3.05;;;13.30;99.90;;;;;;5033977;28;20028;-84
2022/12/26 07:51:13;;;;;;;5.13;3.40;;;13.30;99.90;;;;;;5033065;28;20524;-83
2022/12/26 07:53:39;;;;;;;5.45;2.15;;;13.20;99.90;;;;;;5032862;28;20030;-83
2022/12/26 07:56:05;;;;;;;5.15;3.60;;;13.20;99.90;;;;;;5032450;28;20116;-83
2022/12/26 07:58:30;;;;;;;8.40;3.40;;;13.20;99.90;;;;;;5033014;28;20080;-83
2022/12/26 08:01:03;;;;;;;3.75;3.20;;;13.30;99.90;;;;;;5032532;28;20186;-83
2022/12/26 08:03:29;;;;;;;5.32;3.47;;;13.20;99.90;;;;;;5013151;28;20416;-84
2022/12/26 08:05:55;;;;;;;6.32;3.13;;;13.30;99.90;;;;;;5018636;28;20029;-84
2022/12/26 08:08:21;;;;;;;4.45;3.10;;;13.30;99.90;;;;;;5012928;28;20018;-84
2022/12/26 08:10:47;;;;;;;3.95;2.95;;;13.30;99.90;;;;;;5029433;28;20036;-82
2022/12/26 08:13:12;;;;;;;7.35;3.45;;;13.30;99.90;;;;;;5032725;28;20018;-88
2022/12/26 08:15:39;;;;;;;4.72;3.55;;;13.30;99.90;;;;;;5031957;28;20029;-80
2022/12/26 08:18:06;;;;;;;4.45;3.03;;;13.40;99.90;;;;;;5030278;28;20399;-81
2022/12/26 08:20:32;;;;;;;7.35;3.30;;;13.40;99.90;;;;;;5032566;28;20041;-79
2022/12/26 08:22:57;;;;;;;4.00;2.83;;;13.50;99.90;;;;;;5031106;28;20033;-79
2022/12/26 08:25:23;;;;;;;2.65;2.30;;;13.60;99.90;;;;;;5030963;28;20456;-81
2022/12/26 08:27:49;;;;;;;6.65;3.17;;;13.50;99.90;;;;;;5032053;28;20109;-81
2022/12/26 08:30:14;;;;;;;5.88;2.78;;;13.60;99.90;;;;;;5013509;28;20057;-82
2022/12/26 08:32:40;;;;;;;6.53;3.70;;;13.60;99.90;;;;;;5032522;28;20026;-83
2022/12/26 08:35:06;;;;;;;5.55;3.55;;;13.60;99.90;;;;;;5032295;28;20022;-83
2022/12/26 08:37:33;;;;;;;6.13;3.70;;;13.70;99.90;;;;;;5031693;28;20520;-87
2022/12/26 08:39:59;;;;;;;6.63;3.65;;;13.70;99.90;;;;;;5032332;28;20021;-82
2022/12/26 08:42:25;;;;;;;5.63;3.28;;;13.70;99.90;;;;;;5031384;28;20111;-82
2022/12/26 08:44:50;;;;;;;4.38;3.15;;;13.80;99.90;;;;;;5031899;28;20459;-84
2022/12/26 08:47:16;;;;;;;4.15;2.90;;;13.80;99.90;;;;;;5032076;28;20030;-83
2022/12/26 08:49:41;;;;;;;3.72;2.42;;;13.80;99.90;;;;;;5032226;28;20029;-84
2022/12/26 08:52:07;;;;;;;5.53;3.75;;;13.90;99.90;;;;;;5031678;28;20037;-84
2022/12/26 08:54:33;;;;;;;4.57;3.30;;;13.90;99.90;;;;;;5031739;28;20482;-83
2022/12/26 08:56:58;;;;;;;5.43;3.05;;;13.90;99.90;;;;;;5031803;28;20112;-88
2022/12/26 08:59:24;;;;;;;5.75;3.30;;;13.90;99.90;;;;;;5031182;28;20053;-85
2022/12/26 09:01:50;;;;;;;4.03;3.17;;;13.90;99.90;;;;;;5031217;28;20119;-85
2022/12/26 09:04:16;;;;;;;6.72;3.85;;;13.90;99.90;;;;;;5031315;28;20029;-85
2022/12/26 09:06:41;;;;;;;7.07;3.55;;;14.00;99.90;;;;;;5031376;28;20168;-86
2022/12/26 09:09:10;;;;;;;4.53;2.67;;;14.00;99.90;;;;;;5032272;28;20022;-85
2022/12/26 09:11:36;;;;;;;4.45;3.05;;;14.10;99.90;;;;;;5032442;28;20504;-85
2022/12/26 09:14:02;;;;;;;7.35;3.83;;;14.20;99.90;;;;;;5031490;28;20033;-85
2022/12/26 09:16:31;;;;;;;3.83;2.50;;;14.20;99.90;;;;;;5031764;28;20056;-85
2022/12/26 09:19:00;;;;;;;4.82;3.22;;;14.20;99.90;;;;;;5031545;28;20046;-85
2022/12/26 09:21:28;;;;;;;6.82;3.67;;;14.20;99.90;;;;;;5031424;28;20040;-85
2022/12/26 09:24:02;;;;;;;4.57;3.00;;;14.30;99.90;;;;;;5031213;28;20499;-85
2022/12/26 09:26:28;;;;;;;5.85;3.65;;;14.40;99.90;;;;;;5031292;28;20029;-85
2022/12/26 09:28:55;;;;;;;8.52;3.30;;;14.50;99.90;;;;;;5032263;28;20028;-85
2022/12/26 09:31:24;;;;;;;4.95;3.67;;;14.50;99.90;;;;;;5031589;28;20022;-85
2022/12/26 09:33:49;;;;;;;6.25;2.85;;;14.60;99.90;;;;;;5031507;28;20021;-85
2022/12/26 09:36:18;;;;;;;5.38;3.15;;;14.60;99.90;;;;;;5030918;28;20034;-85
2022/12/26 09:38:45;;;;;;;6.97;3.17;;;14.60;99.90;;;;;;5031651;28;20436;-85
2022/12/26 09:41:32;;;;;;;10.45;3.42;;;14.60;99.90;;;;;;5031719;28;20021;-86
2022/12/26 09:44:29;;;;;;;6.20;3.28;;;14.60;99.90;;;;;;5030656;28;20029;-85
2022/12/26 09:47:04;;;;;;;6.70;3.63;;;14.50;99.90;;;;;;5030939;28;20030;-85
2022/12/26 09:49:35;;;;;;;4.40;3.80;;;14.50;99.90;;;;;;5031388;28;20068;-85
2022/12/26 09:52:05;;;;;;;9.18;4.13;;;14.50;99.90;;;;;;5031316;28;20030;-86
2022/12/26 09:54:40;;;;;;;6.38;3.50;;;14.50;99.90;;;;;;5031178;28;20768;-84
2022/12/26 09:57:13;;;;;;;5.35;3.25;;;14.50;99.90;;;;;;5031136;28;20052;-84
2022/12/26 09:59:55;;;;;;;7.88;3.60;;;14.50;99.90;;;;;;5032757;28;20025;-84
2022/12/26 10:02:23;;;;;;;5.32;3.65;;;14.60;99.90;;;;;;5008158;28;20033;-85
2022/12/26 10:04:49;;;;;;;4.00;2.45;;;14.70;99.90;;;;;;5047119;28;20033;-84
2022/12/26 10:07:15;;;;;;;5.97;3.08;;;14.70;99.90;;;;;;5035800;28;20057;-83
2022/12/26 10:10:10;;;;;;;6.28;2.95;;;14.70;99.90;;;;;;5033873;28;20065;-85
2022/12/26 10:12:51;;;;;;;6.82;3.40;;;14.80;99.90;;;;;;5020852;28;20111;-84
2022/12/26 10:15:43;;;;;;;7.68;3.17;;;14.90;99.90;;;;;;5017374;28;20021;-82
2022/12/26 10:18:37;;;;;;;5.60;3.50;;;15.10;99.90;;;;;;5040904;28;20044;-83
2022/12/26 10:21:33;;;;;;;4.93;3.45;;;15.30;99.90;;;;;;5014838;28;20042;-85
2022/12/26 10:24:19;;;;;;;6.03;3.70;;;15.90;99.90;;;;;;5035415;28;20075;-85
2022/12/26 10:26:49;;;;;;;6.75;3.00;;;15.80;99.90;;;;;;5034177;28;20075;-84
2022/12/26 10:29:25;;;;;;;5.85;3.17;;;15.80;99.90;;;;;;5001196;28;20030;-84
2022/12/26 10:32:19;;;;;;;3.80;2.10;;;15.50;99.90;;;;;;5029057;28;20456;-84
2022/12/26 10:34:47;;;;;;;7.05;3.33;;;15.30;99.90;;;;;;5028409;28;20037;-84
2022/12/26 10:37:25;;;;;;;7.60;3.92;;;15.40;99.90;;;;;;5034751;28;20483;-85
2022/12/26 10:39:55;;;;;;;6.60;2.10;;;15.50;99.90;;;;;;5033886;28;20040;-85
2022/12/26 10:42:29;;;;;;;4.93;2.90;;;15.50;99.90;;;;;;5034238;28;20072;-84
2022/12/26 10:44:56;;;;;;;5.55;2.65;;;15.80;99.90;;;;;;5034155;28;20025;-85
2022/12/26 10:47:32;;;;;;;6.53;3.42;;;16.00;99.90;;;;;;5034039;28;20496;-85
2022/12/26 10:49:58;;;;;;;5.45;3.00;;;16.20;99.90;;;;;;5033373;28;20116;-85
2022/12/26 10:52:31;;;;;;;5.32;2.85;;;16.20;99.90;;;;;;5033894;28;20045;-85
2022/12/26 10:54:58;;;;;;;7.40;3.25;;;15.90;99.90;;;;;;5029154;28;20036;-84
2022/12/26 10:57:27;;;;;;;4.25;2.78;;;15.80;99.90;;;;;;5024029;28;20040;-88
2022/12/26 10:59:54;;;;;;;4.75;3.30;;;15.60;99.90;;;;;;5033488;28;20037;-86
2022/12/26 11:02:28;;;;;;;7.03;3.85;;;15.50;99.90;;;;;;5032347;28;20037;-85
2022/12/26 11:05:08;;;;;;;5.45;3.17;;;15.50;99.90;;;;;;5033629;28;20032;-84
2022/12/26 11:07:43;;;;;;;5.07;2.97;;;15.40;99.90;;;;;;5026589;28;20367;-88
2022/12/26 11:10:25;;;;;;;4.78;3.60;;;15.30;99.90;;;;;;5033232;28;20029;-84
2022/12/26 11:12:53;;;;;;;5.45;2.90;;;15.40;99.90;;;;;;5033945;28;20060;-84
2022/12/26 11:15:40;;;;;;;5.45;3.13;;;15.30;99.90;;;;;;5033716;28;20400;-90
2022/12/26 11:18:27;;;;;;;5.38;3.30;;;15.30;99.90;;;;;;5014383;28;20081;-89
2022/12/26 11:20:53;;;;;;;5.13;3.60;;;15.30;99.90;;;;;;5019684;28;20076;-90
2022/12/26 11:23:23;;;;;;;6.20;2.95;;;15.20;99.90;;;;;;5034126;28;20057;-89
2022/12/26 11:25:51;;;;;;;3.67;2.60;;;15.20;99.90;;;;;;5033620;28;20067;-88
2022/12/26 11:28:32;;;;;;;4.93;3.33;;;15.10;99.90;;;;;;5033296;28;20041;-82
2022/12/26 11:31:01;;;;;;;5.47;2.97;;;15.20;99.90;;;;;;5033918;28;20152;-88
2022/12/26 11:33:43;;;;;;;5.35;3.22;;;15.20;99.90;;;;;;5015360;28;20596;-88
2022/12/26 11:36:14;;;;;;;4.72;3.00;;;15.20;99.90;;;;;;5033918;28;20025;-87
2022/12/26 11:38:54;;;;;;;4.68;3.13;;;15.20;99.90;;;;;;5033740;28;20025;-87
2022/12/26 11:41:32;;;;;;;6.20;3.65;;;15.20;99.90;;;;;;5016777;28;20045;-88
2022/12/26 11:44:12;;;;;;;5.55;3.58;;;15.20;99.90;;;;;;5028022;28;20026;-86
2022/12/26 11:46:43;;;;;;;4.03;3.00;;;15.20;99.90;;;;;;5013999;28;20029;-87
2022/12/26 11:49:23;;;;;;;5.50;2.85;;;15.10;99.90;;;;;;5027732;28;20026;-87
2022/12/26 11:51:50;;;;;;;7.07;3.33;;;15.10;99.90;;;;;;5016321;28;20627;-87
2022/12/26 11:54:25;;;;;;;5.05;3.10;;;15.20;99.90;;;;;;5033002;28;20108;-87
2022/12/26 11:57:17;;;;;;;5.95;3.50;;;15.30;99.90;;;;;;5042403;28;20026;-88
2022/12/26 11:59:43;;;;;;;5.07;3.05;;;15.40;99.90;;;;;;5024439;28;20037;-84
2022/12/26 12:02:16;;;;;;;5.75;3.00;;;15.50;99.90;;;;;;5030972;28;20501;-85
2022/12/26 12:04:44;;;;;;;7.88;4.03;;;15.40;99.90;;;;;;5031912;28;20033;-84
2022/12/26 12:07:35;;;;;;;6.57;3.92;;;15.40;99.90;;;;;;5032734;28;20080;-84
2022/12/26 12:10:09;;;;;;;5.45;3.22;;;15.50;99.90;;;;;;5019454;28;20033;-84
2022/12/26 12:12:48;;;;;;;5.82;3.20;;;15.50;99.90;;;;;;5032348;28;20083;-90
2022/12/26 12:15:17;;;;;;;5.28;3.30;;;15.80;99.90;;;;;;5034294;28;20029;-95
2022/12/26 12:17:51;;;;;;;5.28;3.25;;;16.00;99.90;;;;;;5032668;28;20053;-87
2022/12/26 12:20:36;;;;;;;6.15;3.42;;;16.10;99.90;;;;;;5032729;28;20028;-86
2022/12/26 12:23:42;;;;;;;5.13;3.35;;;16.00;99.90;;;;;;5021784;28;20053;-85
2022/12/26 12:26:51;;;;;;;7.65;3.80;;;15.90;99.90;;;;;;5032439;28;20025;-85
2022/12/26 12:29:25;;;;;;;5.90;3.45;;;15.80;99.90;;;;;;4961967;28;20491;-86
2022/12/26 12:31:56;;;;;;;3.95;2.80;;;15.60;99.90;;;;;;4951893;29;20043;-86
2022/12/26 12:34:25;;;;;;;4.03;2.95;;;15.60;99.90;;;;;;4952596;29;20031;-86
2022/12/26 12:37:06;;;;;;;6.00;3.35;;;15.50;99.90;;;;;;4952267;28;20492;-86
2022/12/26 12:39:42;;;;;;;5.15;3.58;;;15.60;99.90;;;;;;4952305;29;20492;-86
2022/12/26 12:42:23;;;;;;;4.18;2.60;;;15.50;99.90;;;;;;4951662;29;20043;-86
2022/12/26 12:45:16;;;;;;;6.65;3.83;;;15.40;99.90;;;;;;4952091;28;20037;-86
2022/12/26 12:47:58;;;;;;;6.68;3.88;;;15.50;99.90;;;;;;4952344;28;20043;-86
2022/12/26 12:50:30;;;;;;;5.97;3.10;;;15.50;99.90;;;;;;4952340;28;20027;-86
2022/12/26 12:53:10;;;;;;;3.95;2.67;;;15.50;99.90;;;;;;4958541;28;20030;-86
2022/12/26 12:56:01;;;;;;;6.07;3.40;;;15.60;99.90;;;;;;4971290;28;20482;-85
2022/12/26 12:58:36;;;;;;;4.78;3.10;;;15.70;99.90;;;;;;4970728;28;20069;-86
2022/12/26 13:01:11;;;;;;;6.85;3.65;;;15.60;99.90;;;;;;4971420;28;20070;-85
2022/12/26 13:04:09;;;;;;;5.32;3.60;;;15.60;99.90;;;;;;5014154;28;20049;-86
2022/12/26 13:06:50;;;;;;;5.63;3.45;;;15.50;99.90;;;;;;5032029;28;20021;-86
2022/12/26 13:09:21;;;;;;;4.72;3.42;;;15.40;99.90;;;;;;5031946;28;20084;-86
2022/12/26 13:12:09;;;;;;;5.88;3.90;;;15.30;99.90;;;;;;5031511;28;20423;-86
2022/12/26 13:14:49;;;;;;;7.90;3.80;;;15.30;99.90;;;;;;5032051;28;20026;-86
2022/12/26 13:17:43;;;;;;;6.85;3.92;;;15.80;99.90;;;;;;5032133;28;20053;-86
2022/12/26 13:20:20;;;;;;;5.22;3.70;;;15.30;99.90;;;;;;5032026;28;20034;-86
2022/12/26 13:25:42;;;;;;;7.47;4.45;;;15.30;99.90;;;;;;5032135;28;20037;-84
2022/12/26 13:28:17;;;;;;;9.48;4.57;;;15.20;99.90;;;;;;5031973;28;20029;-85
2022/12/26 13:30:43;;;;;;;6.05;3.90;;;15.80;99.90;;;;;;5014103;28;20433;-86
2022/12/26 13:33:14;;;;;;;6.75;4.78;;;17.40;99.90;;;;;;5031605;28;20013;-85
2022/12/26 13:36:01;;;;;;;8.30;4.90;;;19.60;99.90;;;;;;5035781;28;20031;-86
2022/12/26 13:38:54;;;;;;;7.70;5.03;;;21.60;99.90;;;;;;5017867;28;20021;-85
2022/12/26 13:44:17;;;;;;;7.97;4.30;;;17.20;99.90;;;;;;5035964;28;20450;-86
2022/12/26 13:46:46;;;;;;;7.05;4.60;;;16.80;99.90;;;;;;5035899;28;20503;-85
2022/12/26 13:49:35;;;;;;;7.60;4.57;;;16.70;99.90;;;;;;5035471;28;20034;-86
2022/12/26 13:52:10;;;;;;;10.18;4.28;;;16.50;99.90;;;;;;5035416;28;20037;-86
2022/12/26 13:54:37;;;;;;;5.63;4.43;;;16.20;99.90;;;;;;5035439;28;20064;-86
2022/12/26 13:57:38;;;;;;;6.53;3.90;;;16.30;99.90;;;;;;5035627;28;20048;-86
2022/12/26 14:00:13;;;;;;;7.20;4.15;;;16.10;99.90;;;;;;5035536;28;20057;-86
2022/12/26 14:02:47;;;;;;;7.63;4.22;;;16.10;99.90;;;;;;5035113;28;20049;-86
2022/12/26 14:05:51;;;;;;;5.75;4.20;;;16.10;99.90;;;;;;5034970;28;20029;-86
2022/12/26 14:08:46;;;;;;;6.53;4.35;;;16.20;99.90;;;;;;4935567;29;20408;-86
2022/12/26 14:11:40;;;;;;;6.68;4.15;;;16.40;99.90;;;;;;4929755;29;20199;-86
2022/12/26 14:14:22;;;;;;;6.45;4.13;;;16.50;99.90;;;;;;4935680;29;20061;-86
2022/12/26 14:16:58;;;;;;;6.72;4.53;;;16.10;99.90;;;;;;4935915;29;20032;-86
2022/12/26 14:19:48;;;;;;;6.35;4.25;;;15.90;99.90;;;;;;4935587;29;20423;-86
2022/12/26 14:22:13;;;;;;;6.28;3.72;;;15.80;99.90;;;;;;4935404;29;20032;-85
2022/12/26 14:25:04;;;;;;;6.63;4.03;;;15.80;99.90;;;;;;4935203;29;20040;-86
2022/12/26 14:27:35;;;;;;;6.25;4.35;;;15.70;99.90;;;;;;4935521;29;20028;-86
2022/12/26 14:30:22;;;;;;;5.10;4.28;;;15.70;99.90;;;;;;4935356;29;20028;-86
2022/12/26 14:32:57;;;;;;;6.18;4.35;;;15.70;99.90;;;;;;4935506;29;20032;-86
2022/12/26 14:35:40;;;;;;;8.38;4.22;;;15.60;99.90;;;;;;4935319;29;20046;-86
2022/12/26 14:38:31;;;;;;;10.02;6.28;;;15.50;99.90;;;;;;4935307;29;20044;-86
2022/12/26 14:41:06;;;;;;;9.32;7.20;;;15.40;99.90;;;;;;4935615;29;20039;-86
2022/12/26 14:43:36;;;;;;;9.10;6.00;;;15.20;99.90;;;;;;4936688;28;20601;-86
2022/12/26 14:46:23;;;;;;;7.25;5.25;;;15.20;99.90;;;;;;5015292;28;20674;-86
2022/12/26 14:48:54;;;;;;;7.47;5.57;;;15.30;99.90;;;;;;4934841;29;20039;-86
2022/12/26 14:51:19;;;;;;;10.95;5.60;;;15.30;99.90;;;;;;4935373;29;20751;-86
2022/12/26 14:54:05;;;;;;;9.02;5.10;;;15.20;99.90;;;;;;4934432;29;20035;-86
2022/12/26 14:56:36;;;;;;;7.82;5.90;;;15.10;99.90;;;;;;4934536;29;20108;-86
2022/12/26 14:59:20;;;;;;;9.93;5.32;;;14.90;99.90;;;;;;4934646;29;20027;-86
2022/12/26 15:01:58;;;;;;;9.23;6.18;;;14.90;99.90;;;;;;4934574;29;20493;-86
2022/12/26 15:05:06;;;;;;;9.82;7.60;;;14.90;99.90;;;;;;4934668;29;20032;-85
2022/12/26 15:07:56;;;;;;;13.38;7.57;;;14.60;99.90;;;;;;4896447;29;20121;-85
2022/12/26 15:10:40;;;;;;;10.57;7.20;;;14.50;99.90;;;;;;4896780;29;20322;-85
2022/12/26 15:13:42;;;;;;;9.52;7.50;;;14.40;99.90;;;;;;4896531;29;20049;-85
2022/12/26 15:16:29;;;;;;;12.93;7.90;;;14.40;99.90;;;;;;4896631;29;20033;-85
2022/12/26 15:19:04;;;;;;;12.98;8.35;;;14.40;99.90;;;;;;4896513;29;20481;-86
2022/12/26 15:21:46;;;;;;;12.80;7.78;;;14.30;99.90;;;;;;4896832;29;20045;-85
2022/12/26 15:24:23;;;;;;;12.88;7.85;;;14.20;99.90;;;;;;4896551;29;20116;-85
2022/12/26 15:27:10;;;;;;;11.23;7.40;;;14.20;99.90;;;;;;4959370;28;20046;-85